Time;durP1;ratioP1;P1;durP2;ratioP2;P2;SDS_P1;SDS_P2;PMS_P1;PMS_P2;Temp;Humidity;BMP_temperature;BMP_pressure;BME280_temperature;BME280_humidity;BME280_pressure;Samples;Min_cycle;Max_cycle;Signal;HPM_P1;HPM_P2
2022/02/25 00:00:06;;;;;;;7.60;2.67;;;4.30;1.00;;;;;;5070899;28;20224;-72
2022/02/25 00:02:33;;;;;;;7.00;3.13;;;4.30;1.00;;;;;;5065627;28;20202;-72
2022/02/25 00:05:00;;;;;;;4.83;2.73;;;4.30;1.00;;;;;;5072089;28;20198;-72
2022/02/25 00:07:28;;;;;;;5.63;2.50;;;4.30;1.00;;;;;;5070665;28;20301;-73
2022/02/25 00:09:55;;;;;;;3.27;2.60;;;4.30;1.00;;;;;;5071236;28;20225;-73
2022/02/25 00:12:22;;;;;;;11.97;2.90;;;4.30;1.00;;;;;;5071231;28;20194;-74
2022/02/25 00:14:49;;;;;;;8.97;2.73;;;4.30;1.00;;;;;;5072186;28;20715;-72
2022/02/25 00:17:16;;;;;;;8.00;2.87;;;4.30;4.60;;;;;;5070724;28;20206;-74
2022/02/25 00:19:43;;;;;;;5.40;2.20;;;4.20;99.90;;;;;;5071637;28;20198;-73
2022/02/25 00:22:10;;;;;;;5.60;2.17;;;4.20;65.90;;;;;;5070405;28;20206;-73
2022/02/25 00:24:38;;;;;;;4.10;2.60;;;4.20;99.90;;;;;;5071866;28;20198;-73
2022/02/25 00:27:05;;;;;;;7.83;2.60;;;4.20;1.00;;;;;;5071393;28;20718;-73
2022/02/25 00:29:32;;;;;;;6.20;2.40;;;4.20;1.00;;;;;;5071438;28;20226;-74
2022/02/25 00:31:59;;;;;;;7.50;2.87;;;4.10;1.00;;;;;;5070972;28;20551;-73
2022/02/25 00:34:26;;;;;;;7.53;2.73;;;4.10;1.00;;;;;;5070938;28;20547;-73
2022/02/25 00:36:53;;;;;;;6.53;2.40;;;4.10;1.00;;;;;;5069666;28;20203;-73
2022/02/25 00:39:19;;;;;;;8.53;4.63;;;4.20;1.00;;;;;;5071484;28;20213;-74
2022/02/25 00:41:48;;;;;;;10.13;2.53;;;4.20;1.00;;;;;;5071592;28;20293;-74
2022/02/25 00:44:14;;;;;;;5.80;2.70;;;4.20;1.00;;;;;;5071370;28;20667;-73
2022/02/25 00:46:41;;;;;;;7.90;2.80;;;4.20;1.00;;;;;;5071455;28;20648;-74
2022/02/25 00:49:08;;;;;;;7.83;2.60;;;4.20;1.00;;;;;;5070796;28;20222;-74
2022/02/25 00:51:35;;;;;;;6.47;2.10;;;4.20;1.00;;;;;;5070589;28;20205;-73
2022/02/25 00:54:02;;;;;;;6.13;2.47;;;4.10;1.00;;;;;;5070739;28;20210;-73
2022/02/25 00:56:29;;;;;;;7.27;2.70;;;4.00;1.00;;;;;;5070709;28;20206;-73
2022/02/25 00:58:57;;;;;;;4.83;2.20;;;3.90;1.00;;;;;;5069626;28;20186;-73
2022/02/25 01:01:25;;;;;;;6.47;2.93;;;3.90;1.00;;;;;;5072044;28;20198;-74
2022/02/25 01:03:52;;;;;;;7.60;2.33;;;3.90;1.00;;;;;;5070300;28;20195;-73
2022/02/25 01:06:18;;;;;;;3.97;2.20;;;3.80;1.00;;;;;;5060650;28;20210;-74
2022/02/25 01:08:45;;;;;;;7.37;2.83;;;3.70;99.90;;;;;;5075214;28;20676;-74
2022/02/25 01:11:12;;;;;;;5.10;2.50;;;3.70;98.70;;;;;;5074443;28;20198;-73
2022/02/25 01:13:39;;;;;;;5.33;2.20;;;3.70;1.00;;;;;;5074939;28;20205;-73
2022/02/25 01:16:08;;;;;;;4.67;2.30;;;3.80;1.00;;;;;;5073713;28;20645;-74
2022/02/25 01:18:34;;;;;;;6.03;2.23;;;3.80;1.00;;;;;;5075129;28;20268;-73
2022/02/25 01:21:01;;;;;;;5.60;2.70;;;3.80;1.00;;;;;;5074116;28;20199;-73
2022/02/25 01:23:28;;;;;;;6.23;2.40;;;3.80;1.00;;;;;;5074928;28;20238;-72
2022/02/25 01:25:55;;;;;;;4.37;2.10;;;3.90;1.00;;;;;;5074027;28;20577;-73
2022/02/25 01:28:22;;;;;;;4.13;2.30;;;4.00;1.00;;;;;;5074463;28;20652;-74
2022/02/25 01:30:49;;;;;;;6.57;2.80;;;4.00;1.00;;;;;;5073873;28;20640;-74
2022/02/25 01:33:17;;;;;;;11.07;4.27;;;4.00;1.00;;;;;;5074086;28;20573;-73
2022/02/25 01:35:45;;;;;;;5.80;3.20;;;4.00;1.00;;;;;;5072976;28;20209;-73
2022/02/25 01:38:11;;;;;;;10.87;3.63;;;4.10;99.90;;;;;;5073523;28;20204;-73
2022/02/25 01:40:39;;;;;;;5.00;3.43;;;4.10;1.00;;;;;;5073556;28;20281;-74
2022/02/25 01:43:05;;;;;;;9.90;3.70;;;4.20;1.00;;;;;;5074213;28;20566;-74
2022/02/25 01:45:36;;;;;;;6.60;3.47;;;4.20;1.00;;;;;;5074110;28;20293;-72
2022/02/25 01:48:03;;;;;;;8.97;3.77;;;4.20;1.00;;;;;;5074318;28;20210;-73
2022/02/25 01:50:32;;;;;;;10.37;3.57;;;4.20;1.00;;;;;;5074278;28;20264;-73
2022/02/25 01:53:02;;;;;;;9.27;3.70;;;4.10;1.00;;;;;;5074633;28;20293;-73
2022/02/25 01:55:30;;;;;;;7.17;3.50;;;4.00;1.00;;;;;;5073572;28;20217;-74
2022/02/25 01:57:57;;;;;;;7.70;3.60;;;4.00;1.00;;;;;;5074051;28;20667;-72
2022/02/25 02:00:25;;;;;;;9.23;4.20;;;3.90;1.00;;;;;;5072401;28;20201;-73
2022/02/25 02:02:52;;;;;;;8.33;3.67;;;3.90;1.00;;;;;;5074211;28;20256;-73
2022/02/25 02:05:22;;;;;;;11.33;3.73;;;3.90;1.00;;;;;;5073486;28;20198;-73
2022/02/25 02:07:50;;;;;;;9.67;3.57;;;3.90;1.00;;;;;;5053636;28;20206;-73
2022/02/25 02:10:17;;;;;;;8.20;3.40;;;3.90;44.00;;;;;;5071192;28;20219;-74
2022/02/25 02:12:44;;;;;;;9.27;3.40;;;3.90;1.00;;;;;;5072527;28;20202;-73
2022/02/25 02:15:12;;;;;;;7.50;3.10;;;3.80;1.00;;;;;;5073172;28;20202;-73
2022/02/25 02:17:40;;;;;;;3.77;2.93;;;3.80;1.00;;;;;;5072537;28;20209;-73
2022/02/25 02:20:07;;;;;;;7.00;3.13;;;3.70;1.00;;;;;;5073733;28;20187;-72
2022/02/25 02:22:36;;;;;;;6.63;3.20;;;3.60;1.00;;;;;;5073290;28;20652;-72
2022/02/25 02:25:04;;;;;;;10.90;3.37;;;3.60;1.00;;;;;;5073231;28;20198;-73
2022/02/25 02:30:13;;;;;;;7.53;3.40;;;3.50;1.00;;;;;;5072398;28;20489;-73
2022/02/25 02:32:40;;;;;;;9.77;3.50;;;3.40;1.00;;;;;;5073409;28;20207;-72
2022/02/25 02:35:08;;;;;;;7.23;3.50;;;3.40;99.90;;;;;;5073009;28;20201;-72
2022/02/25 02:37:36;;;;;;;9.17;3.83;;;3.40;99.90;;;;;;5072187;28;20710;-74
2022/02/25 02:40:05;;;;;;;5.87;3.60;;;3.40;99.90;;;;;;5072519;28;20190;-74
2022/02/25 02:42:32;;;;;;;9.47;3.90;;;3.30;99.90;;;;;;5072117;28;20210;-73
2022/02/25 02:44:59;;;;;;;8.33;4.07;;;3.30;99.90;;;;;;5073217;28;20206;-73
2022/02/25 02:47:26;;;;;;;9.83;4.93;;;3.20;1.00;;;;;;5072753;28;20205;-74
2022/02/25 02:49:53;;;;;;;9.90;5.00;;;3.20;1.00;;;;;;5072157;28;20217;-73
2022/02/25 02:52:20;;;;;;;11.97;4.60;;;3.30;1.00;;;;;;5072174;28;20206;-73
2022/02/25 02:54:48;;;;;;;7.53;5.00;;;3.20;1.00;;;;;;5072887;28;20198;-74
2022/02/25 02:57:16;;;;;;;9.50;4.97;;;3.20;1.00;;;;;;5071722;28;20194;-72
2022/02/25 02:59:43;;;;;;;8.40;5.10;;;3.10;1.00;;;;;;5071899;28;20206;-72
2022/02/25 03:02:11;;;;;;;9.03;4.70;;;3.10;1.00;;;;;;5071450;28;20190;-72
2022/02/25 03:04:38;;;;;;;9.93;5.30;;;3.10;1.00;;;;;;5072759;28;20202;-72
2022/02/25 03:07:06;;;;;;;7.07;5.10;;;3.10;1.00;;;;;;5071655;28;20198;-73
2022/02/25 03:09:33;;;;;;;9.90;5.80;;;3.10;57.60;;;;;;5072209;28;20279;-74
2022/02/25 03:12:02;;;;;;;9.00;5.40;;;3.20;1.00;;;;;;5072256;28;20206;-72
2022/02/25 03:14:29;;;;;;;10.07;5.47;;;3.20;1.00;;;;;;5072301;28;20629;-73
2022/02/25 03:16:56;;;;;;;12.33;5.87;;;3.20;1.00;;;;;;5071729;28;20214;-70
2022/02/25 03:19:23;;;;;;;13.80;6.07;;;3.20;1.00;;;;;;5072395;28;20194;-70
2022/02/25 03:21:50;;;;;;;12.70;6.30;;;3.20;1.00;;;;;;5071141;28;20691;-70
2022/02/25 03:24:17;;;;;;;11.83;6.13;;;3.20;1.00;;;;;;5072235;28;20700;-70
2022/02/25 03:26:43;;;;;;;13.57;6.23;;;3.20;1.00;;;;;;5071810;28;20202;-70
2022/02/25 03:29:12;;;;;;;11.77;5.83;;;3.30;1.00;;;;;;5071535;28;20202;-69
2022/02/25 03:31:40;;;;;;;12.57;5.43;;;3.30;1.00;;;;;;5071596;28;20202;-69
2022/02/25 03:34:06;;;;;;;17.27;6.00;;;3.30;1.00;;;;;;5072145;28;20198;-69
2022/02/25 03:36:36;;;;;;;8.03;5.60;;;3.40;99.90;;;;;;5071704;28;20564;-70
2022/02/25 03:39:04;;;;;;;10.37;5.97;;;3.50;99.90;;;;;;5072035;28;20559;-70
2022/02/25 03:41:31;;;;;;;12.30;5.27;;;3.50;1.00;;;;;;5071623;28;20707;-70
2022/02/25 03:43:58;;;;;;;13.27;6.70;;;3.50;1.00;;;;;;5071090;28;20198;-70
2022/02/25 03:46:26;;;;;;;11.30;5.83;;;3.60;1.00;;;;;;5070632;28;20200;-70
2022/02/25 03:48:53;;;;;;;12.50;5.70;;;3.50;1.00;;;;;;5072047;28;20560;-70
2022/02/25 03:51:21;;;;;;;13.37;5.50;;;3.50;1.00;;;;;;5071128;28;20222;-69
2022/02/25 03:53:48;;;;;;;11.00;5.47;;;3.60;1.00;;;;;;5071356;28;20204;-70
2022/02/25 03:56:15;;;;;;;15.33;7.20;;;3.50;1.00;;;;;;5067480;28;20289;-70
2022/02/25 03:58:42;;;;;;;11.70;5.90;;;3.50;1.00;;;;;;5071479;28;20198;-70
2022/02/25 04:01:09;;;;;;;10.10;5.63;;;3.60;1.00;;;;;;5071406;28;20401;-70
2022/02/25 04:03:38;;;;;;;11.13;6.50;;;3.60;1.00;;;;;;5071469;28;20209;-70
2022/02/25 04:06:05;;;;;;;10.27;5.50;;;3.60;1.00;;;;;;5071756;28;20199;-70
2022/02/25 04:08:34;;;;;;;11.03;5.80;;;3.60;1.00;;;;;;5071696;28;20213;-70
2022/02/25 04:11:01;;;;;;;11.40;5.63;;;3.60;1.00;;;;;;5057576;28;20210;-71
2022/02/25 04:13:28;;;;;;;11.03;5.33;;;3.60;1.00;;;;;;5071490;28;20206;-70
2022/02/25 04:15:55;;;;;;;10.67;5.20;;;3.60;1.00;;;;;;5071033;28;20214;-70
2022/02/25 04:18:22;;;;;;;12.17;5.57;;;3.70;1.00;;;;;;5071244;28;20400;-70
2022/02/25 04:20:50;;;;;;;10.17;5.70;;;3.60;1.00;;;;;;5071228;28;20641;-70
2022/02/25 04:23:17;;;;;;;8.77;5.17;;;3.70;1.00;;;;;;5071436;28;20208;-70
2022/02/25 04:25:44;;;;;;;12.23;5.50;;;3.70;1.00;;;;;;5071277;28;20289;-70
2022/02/25 04:28:11;;;;;;;8.90;5.30;;;3.70;1.00;;;;;;5065827;28;20561;-70
2022/02/25 04:30:38;;;;;;;10.50;5.40;;;3.70;1.00;;;;;;5069952;28;20325;-69
2022/02/25 04:33:05;;;;;;;7.80;4.87;;;3.70;1.00;;;;;;5072189;28;20218;-70
2022/02/25 04:35:32;;;;;;;7.77;4.77;;;3.80;1.00;;;;;;5072834;28;20216;-70
2022/02/25 04:38:01;;;;;;;10.57;4.40;;;3.80;1.00;;;;;;5075786;28;20562;-69
2022/02/25 04:40:28;;;;;;;8.60;4.23;;;3.80;1.00;;;;;;5075804;28;20202;-70
2022/02/25 04:42:55;;;;;;;8.70;4.63;;;3.80;1.00;;;;;;5075135;28;20576;-70
2022/02/25 04:45:22;;;;;;;9.03;4.67;;;3.80;1.00;;;;;;5075874;28;20206;-70
2022/02/25 04:47:49;;;;;;;9.47;4.87;;;3.80;99.90;;;;;;5075137;28;20226;-70
2022/02/25 04:50:16;;;;;;;6.73;3.80;;;3.90;99.90;;;;;;5074535;28;20588;-70
2022/02/25 04:52:44;;;;;;;10.87;3.70;;;3.90;1.00;;;;;;5074940;28;20210;-70
2022/02/25 04:55:13;;;;;;;14.20;4.80;;;3.90;1.00;;;;;;5074610;28;20649;-70
2022/02/25 04:57:40;;;;;;;9.67;4.50;;;3.90;99.90;;;;;;5075408;28;20377;-70
2022/02/25 05:00:11;;;;;;;10.10;4.20;;;4.00;99.90;;;;;;5074549;28;20268;-70
2022/02/25 05:02:39;;;;;;;11.83;4.17;;;4.00;99.90;;;;;;5075257;28;20255;-70
2022/02/25 05:05:06;;;;;;;10.73;4.00;;;3.90;99.90;;;;;;5074719;28;20198;-70
2022/02/25 05:07:33;;;;;;;8.93;4.10;;;3.90;99.90;;;;;;5074969;28;20221;-70
2022/02/25 05:10:00;;;;;;;7.40;3.80;;;3.90;99.90;;;;;;5075088;28;20689;-70
2022/02/25 05:12:28;;;;;;;6.40;3.80;;;3.90;99.90;;;;;;5075271;28;20252;-70
2022/02/25 05:20:26;;;;;;;10.63;4.40;;;4.00;1.00;;;;;;5074011;28;20231;-70
2022/02/25 05:22:54;;;;;;;9.17;3.60;;;4.00;1.00;;;;;;5074011;28;20206;-70
2022/02/25 05:25:22;;;;;;;12.37;3.40;;;3.90;24.20;;;;;;5074216;28;20207;-70
2022/02/25 05:27:51;;;;;;;8.00;3.40;;;3.80;99.90;;;;;;5069667;28;20199;-70
2022/02/25 05:30:18;;;;;;;8.53;3.40;;;3.80;99.90;;;;;;5074641;28;20226;-70
2022/02/25 05:32:46;;;;;;;10.13;3.53;;;3.70;99.90;;;;;;5068285;28;20664;-70
2022/02/25 05:35:13;;;;;;;8.53;3.67;;;3.70;99.90;;;;;;5072775;28;20194;-70
2022/02/25 05:37:42;;;;;;;9.50;3.97;;;3.70;94.20;;;;;;5072156;28;20202;-70
2022/02/25 05:40:11;;;;;;;8.53;3.60;;;3.70;99.90;;;;;;5078377;28;20201;-70
2022/02/25 05:42:38;;;;;;;11.40;3.73;;;3.70;99.90;;;;;;5066827;28;20246;-70
2022/02/25 05:45:08;;;;;;;9.10;3.50;;;3.60;1.00;;;;;;5072521;28;20206;-70
2022/02/25 05:47:35;;;;;;;7.77;3.10;;;3.60;1.00;;;;;;5071641;28;20570;-70
2022/02/25 05:50:03;;;;;;;11.13;4.27;;;3.60;1.00;;;;;;5069174;28;20302;-70
2022/02/25 05:52:30;;;;;;;8.70;4.07;;;3.60;99.90;;;;;;5072077;28;20202;-70
2022/02/25 05:54:57;;;;;;;5.37;2.70;;;3.60;99.90;;;;;;5076408;28;20575;-70
2022/02/25 05:57:24;;;;;;;9.07;2.80;;;3.60;99.90;;;;;;5069272;28;20688;-70
2022/02/25 05:59:51;;;;;;;11.93;4.20;;;3.60;99.90;;;;;;5067490;28;20222;-70
2022/02/25 06:02:19;;;;;;;9.27;2.97;;;3.70;65.50;;;;;;5079441;28;20194;-70
2022/02/25 06:04:46;;;;;;;11.27;3.23;;;3.70;99.90;;;;;;5069919;28;20668;-70
2022/02/25 06:07:12;;;;;;;9.10;3.43;;;3.60;99.90;;;;;;5071804;28;20198;-70
2022/02/25 06:09:39;;;;;;;8.07;3.10;;;3.70;99.90;;;;;;5070775;28;20317;-70
2022/02/25 06:12:07;;;;;;;8.73;3.13;;;3.80;1.00;;;;;;5079161;28;20222;-70
2022/02/25 06:14:34;;;;;;;9.70;3.63;;;3.70;99.90;;;;;;5067622;28;20218;-70
2022/02/25 06:17:00;;;;;;;7.00;2.70;;;3.50;1.00;;;;;;5072663;28;20210;-70
2022/02/25 06:19:29;;;;;;;9.23;2.93;;;3.60;1.00;;;;;;5072587;28;20240;-70
2022/02/25 06:21:55;;;;;;;6.20;2.73;;;3.50;1.00;;;;;;5071958;28;20209;-70
2022/02/25 06:24:22;;;;;;;8.27;3.03;;;3.50;1.00;;;;;;5071406;28;20198;-70
2022/02/25 06:26:49;;;;;;;7.90;2.97;;;3.50;1.00;;;;;;5074384;28;20564;-70
2022/02/25 06:29:16;;;;;;;10.57;3.03;;;3.60;99.90;;;;;;5070953;28;20637;-70
2022/02/25 06:31:43;;;;;;;10.63;3.30;;;3.60;99.90;;;;;;5064953;28;20232;-70
2022/02/25 06:34:09;;;;;;;11.20;2.93;;;3.60;1.00;;;;;;5075040;28;20285;-70
2022/02/25 06:36:38;;;;;;;6.10;2.40;;;3.50;1.00;;;;;;5071305;28;20229;-70
2022/02/25 06:39:06;;;;;;;11.03;2.90;;;3.60;1.00;;;;;;5071290;28;20194;-70
2022/02/25 06:41:33;;;;;;;11.10;2.57;;;3.60;1.00;;;;;;5066507;28;20199;-71
2022/02/25 06:44:00;;;;;;;6.50;2.63;;;3.70;99.90;;;;;;5080672;28;20198;-74
2022/02/25 06:46:27;;;;;;;8.80;2.43;;;3.70;99.90;;;;;;5066045;28;20210;-73
2022/02/25 06:48:54;;;;;;;10.20;2.77;;;3.70;1.00;;;;;;5071049;28;20205;-73
2022/02/25 06:51:21;;;;;;;11.23;2.60;;;3.70;1.00;;;;;;5071431;28;20218;-73
2022/02/25 06:53:50;;;;;;;8.27;2.47;;;3.60;1.00;;;;;;5069863;28;20213;-74
2022/02/25 06:56:19;;;;;;;9.07;2.73;;;3.60;1.00;;;;;;5070125;28;20202;-73
2022/02/25 06:58:46;;;;;;;7.30;2.60;;;3.60;1.00;;;;;;5074701;28;20206;-73
2022/02/25 07:01:12;;;;;;;8.97;2.57;;;3.70;1.00;;;;;;5068207;28;20200;-73
2022/02/25 07:03:39;;;;;;;10.10;2.90;;;3.80;1.00;;;;;;5062949;28;20214;-73
2022/02/25 07:06:06;;;;;;;7.90;2.50;;;3.70;1.00;;;;;;5065165;28;20198;-74
2022/02/25 07:08:33;;;;;;;7.33;2.33;;;3.70;1.00;;;;;;5063397;28;20590;-74
2022/02/25 07:11:01;;;;;;;6.27;2.23;;;3.70;1.00;;;;;;5066996;28;20228;-74
2022/02/25 07:13:28;;;;;;;10.40;2.80;;;3.70;1.00;;;;;;5065551;28;20218;-73
2022/02/25 07:15:56;;;;;;;10.87;2.47;;;3.80;1.00;;;;;;5081059;28;20206;-73
2022/02/25 07:18:22;;;;;;;6.87;2.20;;;3.80;1.00;;;;;;5065522;28;20285;-73
2022/02/25 07:20:49;;;;;;;8.97;2.57;;;3.90;99.90;;;;;;5072553;28;20543;-72
2022/02/25 07:23:17;;;;;;;8.00;2.57;;;4.00;99.90;;;;;;5071045;28;20194;-73
2022/02/25 07:25:44;;;;;;;9.83;2.43;;;4.00;99.90;;;;;;5069614;28;20649;-73
2022/02/25 07:28:12;;;;;;;9.07;2.20;;;4.00;99.90;;;;;;5065209;28;20210;-73
2022/02/25 07:30:39;;;;;;;9.20;2.70;;;4.10;90.90;;;;;;5064552;28;20227;-73
2022/02/25 07:33:06;;;;;;;4.50;2.37;;;4.30;1.00;;;;;;5063823;28;20652;-73
2022/02/25 07:35:33;;;;;;;9.90;2.17;;;4.30;1.00;;;;;;5056899;28;20726;-72
2022/02/25 07:38:01;;;;;;;6.73;2.03;;;4.40;1.00;;;;;;5063191;28;20222;-73
2022/02/25 07:40:29;;;;;;;13.67;2.47;;;4.70;1.00;;;;;;5060360;28;20199;-74
2022/02/25 07:42:56;;;;;;;4.13;2.03;;;5.00;1.00;;;;;;5065350;28;20556;-74
2022/02/25 07:45:25;;;;;;;8.60;2.57;;;5.30;1.00;;;;;;5061557;28;20210;-74
2022/02/25 07:47:52;;;;;;;5.00;2.33;;;6.00;1.00;;;;;;5075329;28;20202;-73
2022/02/25 07:50:19;;;;;;;8.97;2.03;;;5.70;1.00;;;;;;5064670;28;20636;-73
2022/02/25 07:52:47;;;;;;;9.57;2.10;;;5.00;99.90;;;;;;5071276;28;20206;-72
2022/02/25 07:55:14;;;;;;;7.67;2.43;;;4.80;99.90;;;;;;5075174;28;20216;-73
2022/02/25 07:57:42;;;;;;;7.80;2.13;;;4.90;1.00;;;;;;5071654;28;20209;-72
2022/02/25 08:00:15;;;;;;;8.30;2.40;;;5.00;99.90;;;;;;5064659;28;20620;-73
2022/02/25 08:02:44;;;;;;;7.33;2.50;;;5.10;99.90;;;;;;5074033;28;20194;-72
2022/02/25 08:05:11;;;;;;;7.20;1.97;;;5.40;99.90;;;;;;5068516;28;20200;-73
2022/02/25 08:07:38;;;;;;;7.77;2.17;;;5.20;99.90;;;;;;5073792;28;20558;-72
2022/02/25 08:10:06;;;;;;;9.10;2.70;;;4.80;99.90;;;;;;5072743;28;20203;-73
2022/02/25 08:12:33;;;;;;;9.77;2.03;;;5.50;99.90;;;;;;5069867;28;20277;-72
2022/02/25 08:14:59;;;;;;;6.40;2.00;;;5.30;99.90;;;;;;5068279;28;20205;-72
2022/02/25 08:17:26;;;;;;;9.13;2.30;;;6.00;1.00;;;;;;5071540;28;20203;-73
2022/02/25 08:19:54;;;;;;;7.87;2.07;;;5.70;1.00;;;;;;5068035;28;20202;-72
2022/02/25 08:22:22;;;;;;;11.53;2.63;;;5.80;22.90;;;;;;5067058;28;20195;-72
2022/02/25 08:24:50;;;;;;;13.67;2.63;;;5.40;99.90;;;;;;5071342;28;20284;-72
2022/02/25 08:27:17;;;;;;;10.37;2.43;;;5.30;99.90;;;;;;5066819;28;20260;-73
2022/02/25 08:29:44;;;;;;;10.70;3.10;;;5.50;1.00;;;;;;5071066;28;20202;-72
2022/02/25 08:32:11;;;;;;;7.17;2.40;;;5.70;99.90;;;;;;5064203;28;20214;-72
2022/02/25 08:34:39;;;;;;;8.50;3.10;;;5.50;99.90;;;;;;5070094;28;20206;-73
2022/02/25 08:37:08;;;;;;;9.30;2.60;;;5.40;1.00;;;;;;5064991;28;20194;-73
2022/02/25 08:39:35;;;;;;;13.70;2.97;;;5.40;42.80;;;;;;5068880;28;20663;-73
2022/02/25 08:42:02;;;;;;;9.43;2.63;;;5.40;99.90;;;;;;5071106;28;20198;-73
2022/02/25 08:44:29;;;;;;;7.40;2.33;;;5.40;99.90;;;;;;5072027;28;20206;-72
2022/02/25 08:46:56;;;;;;;10.93;3.10;;;5.50;99.90;;;;;;5071909;28;20198;-73
2022/02/25 08:49:23;;;;;;;6.90;2.63;;;5.60;99.90;;;;;;5071767;28;20263;-73
2022/02/25 08:51:50;;;;;;;10.10;3.60;;;5.70;33.00;;;;;;5071478;28;20584;-73
2022/02/25 08:54:19;;;;;;;13.77;3.93;;;5.80;1.00;;;;;;5070963;28;20210;-73
2022/02/25 08:56:46;;;;;;;8.83;3.13;;;6.10;1.00;;;;;;5070689;28;20213;-72
2022/02/25 08:59:13;;;;;;;11.00;2.77;;;6.60;1.00;;;;;;5070470;28;20894;-73
2022/02/25 09:01:40;;;;;;;10.07;2.53;;;6.70;1.00;;;;;;5070993;28;20202;-72
2022/02/25 09:04:07;;;;;;;12.40;2.77;;;6.30;1.00;;;;;;5071476;28;20283;-72
2022/02/25 09:06:36;;;;;;;11.60;3.07;;;6.00;1.00;;;;;;5070628;28;20217;-72
2022/02/25 09:09:04;;;;;;;13.63;2.90;;;5.90;1.00;;;;;;5071044;28;20202;-72
2022/02/25 09:11:32;;;;;;;13.27;3.63;;;5.70;1.00;;;;;;5071399;28;20280;-73
2022/02/25 09:13:59;;;;;;;10.73;2.80;;;5.80;2.00;;;;;;5064081;28;20203;-73
2022/02/25 09:16:26;;;;;;;12.03;3.30;;;5.80;99.90;;;;;;5065365;28;20206;-74
2022/02/25 09:18:53;;;;;;;13.43;3.87;;;5.90;99.90;;;;;;5071284;28;20208;-73
2022/02/25 09:21:21;;;;;;;11.50;2.70;;;6.20;1.00;;;;;;5071557;28;20202;-74
2022/02/25 09:23:48;;;;;;;9.27;3.07;;;6.50;1.00;;;;;;5075132;28;20206;-73
2022/02/25 09:26:16;;;;;;;9.57;2.80;;;6.40;1.00;;;;;;5074457;28;20252;-74
2022/02/25 09:28:44;;;;;;;8.97;2.80;;;6.20;1.00;;;;;;5074434;28;20198;-73
2022/02/25 09:31:11;;;;;;;8.10;2.97;;;6.50;1.00;;;;;;5074940;28;20206;-73
2022/02/25 09:33:38;;;;;;;15.10;3.33;;;6.70;1.00;;;;;;5074740;28;20698;-73
2022/02/25 09:36:06;;;;;;;7.13;2.63;;;6.50;1.00;;;;;;5074064;28;20214;-73
2022/02/25 09:38:34;;;;;;;11.07;2.60;;;6.20;1.00;;;;;;5073751;28;20202;-74
2022/02/25 09:41:01;;;;;;;9.90;2.80;;;6.10;1.00;;;;;;5074178;28;20240;-73
2022/02/25 09:43:29;;;;;;;13.20;3.00;;;6.00;1.00;;;;;;5074986;28;20202;-73
2022/02/25 09:45:57;;;;;;;9.40;2.60;;;5.90;1.00;;;;;;5074085;28;20297;-74
2022/02/25 09:48:24;;;;;;;12.83;3.60;;;5.70;1.00;;;;;;5074196;28;20202;-73
2022/02/25 09:50:52;;;;;;;12.47;3.03;;;5.70;1.00;;;;;;5073959;28;20688;-73
2022/02/25 09:53:19;;;;;;;9.93;2.90;;;5.70;77.20;;;;;;5073722;28;20692;-73
2022/02/25 09:55:47;;;;;;;15.03;3.27;;;5.60;39.60;;;;;;5074662;28;20572;-73
2022/02/25 09:58:14;;;;;;;11.87;2.77;;;5.60;99.90;;;;;;5074554;28;20659;-74
2022/02/25 10:00:43;;;;;;;10.37;3.30;;;5.50;99.90;;;;;;5074329;28;20210;-73
2022/02/25 10:03:15;;;;;;;10.97;3.10;;;5.50;1.00;;;;;;5072876;28;20202;-73
2022/02/25 10:05:42;;;;;;;13.07;3.80;;;5.50;1.00;;;;;;5073795;28;20208;-73
2022/02/25 10:08:11;;;;;;;14.47;3.77;;;5.50;1.00;;;;;;5074077;28;20206;-73
2022/02/25 10:10:44;;;;;;;8.87;3.30;;;5.50;1.00;;;;;;5074094;28;20217;-69
2022/02/25 10:13:13;;;;;;;8.57;3.43;;;5.60;1.00;;;;;;5073922;28;20222;-73
2022/02/25 10:15:42;;;;;;;12.17;3.20;;;5.50;99.90;;;;;;5073881;28;20214;-74
2022/02/25 10:18:15;;;;;;;10.50;3.60;;;5.50;1.00;;;;;;5072673;28;20210;-73
2022/02/25 10:20:45;;;;;;;7.30;3.70;;;5.40;1.00;;;;;;5073465;28;20207;-74
2022/02/25 10:23:19;;;;;;;9.23;2.87;;;5.40;1.00;;;;;;5073313;28;20502;-74
2022/02/25 10:25:47;;;;;;;9.00;3.37;;;5.30;99.90;;;;;;5073438;28;20197;-74
2022/02/25 10:28:13;;;;;;;9.40;3.50;;;5.10;1.00;;;;;;5074023;28;20572;-73
2022/02/25 10:30:40;;;;;;;8.70;3.57;;;5.00;99.90;;;;;;5072571;28;20206;-73
2022/02/25 10:33:08;;;;;;;7.37;3.57;;;4.90;1.00;;;;;;5073030;28;20230;-73
2022/02/25 10:35:38;;;;;;;7.87;4.37;;;4.80;1.00;;;;;;5073884;28;20206;-74
2022/02/25 10:38:08;;;;;;;12.60;3.80;;;4.90;1.00;;;;;;5073057;28;20210;-73
2022/02/25 10:40:37;;;;;;;11.33;4.20;;;4.80;1.00;;;;;;5072930;28;20221;-73
2022/02/25 10:43:09;;;;;;;11.33;3.93;;;4.90;1.00;;;;;;5072827;28;20691;-73
2022/02/25 10:45:38;;;;;;;9.03;4.00;;;4.90;1.00;;;;;;5072455;28;20207;-73
2022/02/25 10:48:07;;;;;;;12.43;4.13;;;4.90;99.90;;;;;;5072928;28;20668;-72
2022/02/25 10:50:46;;;;;;;13.80;4.23;;;4.90;1.00;;;;;;5073278;28;20208;-73
2022/02/25 10:53:14;;;;;;;9.50;4.50;;;4.80;1.00;;;;;;5072743;28;20233;-73
2022/02/25 10:55:41;;;;;;;12.07;4.43;;;4.90;1.00;;;;;;5072843;28;20225;-74
2022/02/25 10:58:08;;;;;;;15.63;5.00;;;5.00;99.90;;;;;;5072685;28;20272;-73
2022/02/25 11:00:35;;;;;;;11.27;5.40;;;5.10;99.90;;;;;;5073387;28;20207;-73
2022/02/25 11:03:02;;;;;;;9.47;4.93;;;5.10;7.80;;;;;;5072745;28;20205;-73
2022/02/25 11:05:30;;;;;;;12.10;5.90;;;5.30;1.00;;;;;;5072043;28;20234;-73
2022/02/25 11:08:00;;;;;;;12.67;5.57;;;5.30;1.00;;;;;;5072454;28;20691;-73
2022/02/25 11:10:29;;;;;;;12.63;5.80;;;5.40;1.00;;;;;;5073286;28;20563;-73
2022/02/25 11:12:58;;;;;;;8.83;4.93;;;5.50;1.00;;;;;;5072539;28;20253;-73
2022/02/25 11:15:26;;;;;;;10.40;5.17;;;5.70;1.00;;;;;;5072877;28;20269;-73
2022/02/25 11:17:54;;;;;;;11.77;5.77;;;5.70;1.00;;;;;;5071739;28;20202;-73
2022/02/25 11:20:23;;;;;;;11.17;5.97;;;5.80;1.00;;;;;;5072610;28;20561;-73
2022/02/25 11:22:54;;;;;;;7.50;5.00;;;6.00;1.00;;;;;;5072742;28;20202;-73
2022/02/25 11:25:22;;;;;;;9.53;5.00;;;6.10;99.90;;;;;;5072073;28;20217;-74
2022/02/25 11:27:50;;;;;;;12.33;5.30;;;6.00;99.90;;;;;;5072106;28;20309;-73
2022/02/25 11:30:23;;;;;;;11.07;5.50;;;6.00;1.00;;;;;;5072041;28;20206;-74
2022/02/25 11:32:57;;;;;;;10.47;5.03;;;6.30;99.90;;;;;;5072808;28;20335;-73
2022/02/25 11:35:26;;;;;;;8.50;5.57;;;6.40;1.00;;;;;;5070845;28;20210;-73
2022/02/25 11:37:59;;;;;;;12.33;6.20;;;6.50;95.90;;;;;;5072502;28;20652;-73
2022/02/25 11:40:54;;;;;;;13.73;5.17;;;6.30;1.00;;;;;;5072362;28;20653;-73
2022/02/25 11:43:35;;;;;;;8.03;4.93;;;6.20;99.90;;;;;;5072584;28;20213;-73
2022/02/25 11:46:03;;;;;;;11.17;5.80;;;6.10;99.90;;;;;;5070860;28;20644;-73
2022/02/25 11:48:40;;;;;;;13.97;5.73;;;6.00;99.90;;;;;;5070946;28;20637;-73
2022/02/25 11:51:09;;;;;;;11.40;4.67;;;6.10;99.90;;;;;;5072339;28;20206;-73
2022/02/25 11:53:36;;;;;;;10.57;5.50;;;6.10;96.30;;;;;;5072362;28;20222;-74
2022/02/25 11:56:17;;;;;;;11.53;5.13;;;6.30;2.40;;;;;;5071577;28;20214;-73
2022/02/25 11:58:47;;;;;;;13.83;5.17;;;7.10;1.00;;;;;;5071619;28;20206;-73
2022/02/25 12:01:15;;;;;;;10.83;5.30;;;7.20;99.90;;;;;;5071194;28;20227;-73
2022/02/25 12:04:06;;;;;;;13.10;5.00;;;7.60;99.90;;;;;;5071689;28;20645;-74
2022/02/25 12:06:59;;;;;;;10.47;5.03;;;7.90;99.90;;;;;;5072103;28;20210;-74
2022/02/25 12:09:49;;;;;;;9.17;4.57;;;8.10;1.00;;;;;;5071826;28;20441;-74
2022/02/25 12:12:36;;;;;;;12.23;5.20;;;8.20;1.00;;;;;;5065944;28;20577;-73
2022/02/25 12:15:07;;;;;;;10.20;5.57;;;8.10;1.00;;;;;;5072004;28;20224;-73
2022/02/25 12:17:45;;;;;;;9.70;4.17;;;8.20;1.00;;;;;;5071235;28;20234;-73
2022/02/25 12:20:18;;;;;;;8.37;4.13;;;7.80;1.00;;;;;;5072121;28;20233;-73
2022/02/25 12:22:53;;;;;;;11.60;4.90;;;7.60;1.00;;;;;;5071283;28;20205;-73
2022/02/25 12:25:52;;;;;;;8.10;4.27;;;7.30;4.70;;;;;;5071599;28;20536;-74
2022/02/25 12:28:53;;;;;;;9.67;4.60;;;7.30;99.90;;;;;;5072287;28;20350;-73
2022/02/25 12:31:24;;;;;;;10.20;4.30;;;7.50;1.00;;;;;;5072008;28;20208;-73
2022/02/25 12:34:19;;;;;;;10.63;4.60;;;8.10;99.90;;;;;;5071513;28;20226;-73
2022/02/25 12:36:46;;;;;;;10.27;4.47;;;8.40;1.00;;;;;;5066187;28;20206;-73
2022/02/25 12:39:19;;;;;;;9.37;4.20;;;8.40;1.00;;;;;;5071353;28;20206;-73
2022/02/25 12:41:48;;;;;;;12.33;6.03;;;8.30;1.00;;;;;;5071829;28;20213;-74
2022/02/25 12:44:18;;;;;;;10.60;4.40;;;7.90;1.00;;;;;;5059791;28;20199;-73
2022/02/25 12:46:47;;;;;;;12.87;4.53;;;8.10;98.80;;;;;;5060548;28;20569;-73
2022/02/25 12:49:17;;;;;;;11.20;4.27;;;8.10;99.90;;;;;;5070430;28;20571;-74
2022/02/25 12:51:45;;;;;;;11.40;4.30;;;8.20;1.00;;;;;;5071813;28;20210;-73
2022/02/25 12:54:13;;;;;;;7.93;4.17;;;8.60;1.00;;;;;;5071686;28;20222;-73
2022/02/25 12:56:45;;;;;;;14.43;4.07;;;8.80;1.00;;;;;;5072011;28;20214;-73
2022/02/25 12:59:13;;;;;;;9.20;4.00;;;9.70;99.90;;;;;;5075182;28;20300;-74
2022/02/25 13:01:49;;;;;;;12.17;3.80;;;9.80;99.90;;;;;;5070634;28;20211;-73
2022/02/25 13:04:19;;;;;;;6.83;3.53;;;9.80;99.90;;;;;;5069203;28;20198;-74
2022/02/25 13:06:47;;;;;;;7.90;3.00;;;9.40;99.90;;;;;;5072195;28;20203;-73
2022/02/25 13:09:16;;;;;;;8.93;2.87;;;9.60;99.90;;;;;;5075608;28;20204;-73
2022/02/25 13:11:48;;;;;;;11.47;3.43;;;10.80;1.00;;;;;;5068651;28;20260;-73
2022/02/25 13:14:18;;;;;;;9.23;3.30;;;9.90;1.00;;;;;;5067063;28;20215;-73